Airport ICAO


14:33 UTC

11°C

Broken clouds


An affordable passengers' Moving Map for your aircraft. Made for the iPad and the iPhone
More information here

LFPO Orly


Paris FRANCE   VFR


METAR LFPO 241400Z 26003KT 9999 FEW013 BKN220 11/07 Q1012 NOSIG 0h33min

TAF LFPO 241100Z 2412/2518 30005KT 9999 BKN040 BECMG 2412/2414 24005KT TEMPO 2420/2501 2000 -SHRA BKN012 BKN030 BECMG 2501/2503 30005KT SCT030 TEMPO 2512/2515 30012G25KT 3000 SHRA BKN030TCU 3h33min





NOTAMS

OPEN